WetterOnline ( https://www.wetteronline.de )

Wetter aktuell Sauerland (in 400m)

Aktuelles Wetter: Lüdenscheid (392m)

6-stündlich | Neueste Meldungen
Ortszeit Temperatur Wetter
Mi, 24.04. 14:00 21.6° C leicht bewölkt
Mi, 24.04. 8:00 14.0° C bedeckt
Mi, 24.04. 2:00 15.6° C wolkig
Di, 23.04. 20:00 17.5° C wolkig
Di, 23.04. 14:00 17.2° C wolkig
Di, 23.04. 8:00 10.8° C wolkig
Di, 23.04. 2:00 10.5° C wolkenlos
Mo, 22.04. 20:00 17.9° C leicht bewölkt
Ortszeit Temperatur Wetter
Mi, 24.04. 15:30 22.7° C leicht bewölkt
Mi, 24.04. 15:20 22.7° C leicht bewölkt
Mi, 24.04. 15:10 22.7° C leicht bewölkt
Mi, 24.04. 15:00 22.2° C leicht bewölkt
Mi, 24.04. 14:50 22.2° C wolkig
Mi, 24.04. 14:40 23.2° C wolkig
Mi, 24.04. 14:30 22.3° C wolkig
Mi, 24.04. 14:00 21.6° C leicht bewölkt
Mi, 24.04. 13:30 20.8° C leicht bewölkt
Mi, 24.04. 13:00 21.2° C wolkenlos
Mi, 24.04. 12:30 20.2° C wolkig
Ortszeit Relative Feuchte Sichtweite
Mi, 24.04. 14:00 38% 35 km
Mi, 24.04. 8:00 64% 50 km
Mi, 24.04. 2:00 55% 45 km
Di, 23.04. 20:00 46% 45 km
Di, 23.04. 14:00 47% 50 km
Di, 23.04. 8:00 56% 55 km
Di, 23.04. 2:00 47% >70 km
Mo, 22.04. 20:00 29% 60 km
Ortszeit Relative Feuchte Sichtweite
Mi, 24.04. 15:30 31% 30 km
Mi, 24.04. 15:20 31% -
Mi, 24.04. 15:10 31% -
Mi, 24.04. 15:00 32% 40 km
Mi, 24.04. 14:50 32% -
Mi, 24.04. 14:40 33% -
Mi, 24.04. 14:30 34% -
Mi, 24.04. 14:00 38% 35 km
Mi, 24.04. 13:30 38% 16 km
Mi, 24.04. 13:00 41% 35 km
Mi, 24.04. 12:30 47% >70 km
Ortszeit Niederschlagsmenge Niederschlagsart
Mi, 24.04. 14:00 0.0 l/m2 in 6 Std. -
Mi, 24.04. 8:00 0.0 l/m2 in 12 Std. -
Mi, 24.04. 2:00 0.0 l/m2 in 6 Std. -
Di, 23.04. 20:00 0.0 l/m2 in 12 Std. -
Di, 23.04. 14:00 0.0 l/m2 in 6 Std. -
Di, 23.04. 8:00 0.0 l/m2 in 12 Std. -
Di, 23.04. 2:00 0.0 l/m2 in 6 Std. -
Mo, 22.04. 20:00 0.0 l/m2 in 12 Std. -
Ortszeit Niederschlagsmenge Niederschlagsart
Mi, 24.04. 15:30 0.0 l/m2 in 1 Std. -
Mi, 24.04. 15:20 keine Meldung -
Mi, 24.04. 15:10 keine Meldung -
Mi, 24.04. 15:00 0.0 l/m2 in 1 Std. -
Mi, 24.04. 14:50 keine Meldung -
Mi, 24.04. 14:40 keine Meldung -
Mi, 24.04. 14:30 0.0 l/m2 in 1 Std. -
Mi, 24.04. 14:00 0.0 l/m2 in 1 Std. -
Mi, 24.04. 13:30 0.0 l/m2 in 1 Std. -
Mi, 24.04. 13:00 0.0 l/m2 in 1 Std. -
Mi, 24.04. 12:30 0.0 l/m2 in 1 Std. -
Ortszeit Stärke Spitze Richtung
km/h Bft. km/h Grad Sektor
Mi, 24.04. 14:00 17 3 37 190° S
Mi, 24.04. 8:00 4 1 25 100° O
Mi, 24.04. 2:00 7 2 22 160° S
Di, 23.04. 20:00 11 2 43 100° O
Di, 23.04. 14:00 18 3 40 90° O
Di, 23.04. 8:00 17 3 28 90° O
Di, 23.04. 2:00 18 3 54 90° O
Mo, 22.04. 20:00 22 4 43 100° O
Ortszeit Stärke Spitze Richtung
km/h Bft. km/h Grad Sektor
Mi, 24.04. 15:30 11 2 29 160° S
Mi, 24.04. 15:20 11 2 - 160° S
Mi, 24.04. 15:10 14 3 - 210° SW
Mi, 24.04. 15:00 14 3 36 150° SO
Mi, 24.04. 14:50 14 3 - 150° SO
Mi, 24.04. 14:40 14 3 - 220° SW
Mi, 24.04. 14:30 14 3 36 190° S
Mi, 24.04. 14:00 17 3 37 190° S
Mi, 24.04. 13:30 22 4 36 160° S
Mi, 24.04. 13:00 15 3 31 160° S
Mi, 24.04. 12:30 17 3 30 170° S
Ortszeit Untergrenze Bedeckung Gattung
total tief tief mittel hoch
Mi, 24.04. 14:00 9000 m 6/8 0/8 - - -
Mi, 24.04. 8:00 3000 m 8/8 8/8 - - -
Mi, 24.04. 2:00 2700 m 8/8 3/8 - - -
Di, 23.04. 20:00 9000 m 8/8 0/8 - - -
Di, 23.04. 14:00 8700 m 8/8 0/8 - - -
Di, 23.04. 8:00 9000 m 8/8 0/8 - - -
Di, 23.04. 2:00 - 0/8 0/8 - - -
Mo, 22.04. 20:00 9000 m 8/8 0/8 - - -
Ortszeit Bedeckungsgrad in Achtel und Wolkenuntergrenze
Mi, 24.04. 15:30 2(7500m) 3(9000m)
Mi, 24.04. 15:20 2(7500m) 3(9000m)
Mi, 24.04. 15:10 2(8700m) 3(9000m)
Mi, 24.04. 15:00 7(9000m) 8(9000m)
Mi, 24.04. 14:50 7(9000m) 8(9000m)
Mi, 24.04. 14:40 7(9000m) 8(9000m)
Mi, 24.04. 14:30 7(9000m) 8(9000m) 8(9000m)
Mi, 24.04. 14:00 6(9000m)
Mi, 24.04. 13:30 1(3300m) 2(6900m)
Mi, 24.04. 13:00 1(7200m)
Mi, 24.04. 12:30 4(7800m) 7(9000m)
Ortszeit Luftdruck NN (hPa) Tendenz (hPa in 3 Std.)
Mi, 24.04. 14:00 1001 - 0,1
Mi, 24.04. 8:00 1001 + 1,1
Mi, 24.04. 2:00 999 + 0,5
Di, 23.04. 20:00 998 - 0,1
Di, 23.04. 14:00 999 - 0,9
Di, 23.04. 8:00 1002 - 0,8
Di, 23.04. 2:00 1005 - 1,8
Mo, 22.04. 20:00 1006 - 0,9
Ortszeit Luftdruck NN (hPa) Tendenz (hPa in 3 Std.)
Mi, 24.04. 15:30 1000 - 1,1
Mi, 24.04. 15:20 1000 keine Meldung
Mi, 24.04. 15:10 1000 keine Meldung
Mi, 24.04. 15:00 1000 - 0,9
Mi, 24.04. 14:50 1000 keine Meldung
Mi, 24.04. 14:40 1000 keine Meldung
Mi, 24.04. 14:30 1001 - 0,6
Mi, 24.04. 14:00 1001 - 0,1
Mi, 24.04. 13:30 1001 + 0,6
Mi, 24.04. 13:00 1001 + 0,7
Mi, 24.04. 12:30 1002 + 1,2
Ortszeit Schneehöhe (cm)
Mi, 24.04. 14:00 0
Mi, 24.04. 8:00 0
Mi, 24.04. 2:00 0
Di, 23.04. 20:00 0
Di, 23.04. 14:00 0
Di, 23.04. 8:00 0
Di, 23.04. 2:00 0
Mo, 22.04. 20:00 0
Ortszeit Schneehöhe (cm)
Mi, 24.04. 15:30 0
Mi, 24.04. 15:20 0
Mi, 24.04. 15:10 0
Mi, 24.04. 15:00 0
Mi, 24.04. 14:50 0
Mi, 24.04. 14:40 0
Mi, 24.04. 14:30 0
Mi, 24.04. 14:00 0
Mi, 24.04. 13:30 0
Mi, 24.04. 13:00 0
Mi, 24.04. 12:30 0
Link zu dieser Seite / Seite empfehlen

Das Wetter in ...